createdAt,value
2018-08-19T00:00:26.768Z,99.90
2018-08-19T00:02:57.775Z,99.90
2018-08-19T00:05:26.400Z,99.90
2018-08-19T00:07:55.058Z,99.90
2018-08-19T00:10:38.990Z,99.90
2018-08-19T00:13:08.788Z,99.90
2018-08-19T00:15:38.177Z,99.90
2018-08-19T00:18:07.984Z,99.90
2018-08-19T00:20:36.562Z,99.90
2018-08-19T00:23:05.272Z,99.90
2018-08-19T00:25:37.273Z,99.90
2018-08-19T00:28:14.395Z,99.90
2018-08-19T00:30:42.950Z,99.90
2018-08-19T00:33:11.775Z,99.90
2018-08-19T00:35:40.403Z,99.90
2018-08-19T00:38:12.165Z,99.90
2018-08-19T00:40:41.327Z,99.90
2018-08-19T00:43:09.935Z,99.90
2018-08-19T00:45:38.487Z,99.90
2018-08-19T00:48:07.859Z,99.90
2018-08-19T00:50:36.389Z,99.90
2018-08-19T00:53:04.972Z,99.90
2018-08-19T00:55:39.295Z,99.90
2018-08-19T00:58:13.451Z,99.90
2018-08-19T01:00:42.021Z,99.90
2018-08-19T01:03:11.358Z,99.90
2018-08-19T01:05:40.038Z,99.90
2018-08-19T01:08:09.596Z,99.90
2018-08-19T01:10:38.325Z,99.90
2018-08-19T01:13:07.140Z,99.90
2018-08-19T01:15:35.697Z,99.90
2018-08-19T01:18:04.320Z,99.90
2018-08-19T01:20:32.873Z,99.90
2018-08-19T01:23:01.433Z,99.90
2018-08-19T01:25:29.984Z,99.90
2018-08-19T01:27:58.491Z,99.90
2018-08-19T01:30:27.426Z,99.90
2018-08-19T01:32:55.965Z,99.90
2018-08-19T01:35:32.460Z,99.90
2018-08-19T01:38:01.184Z,99.90
2018-08-19T01:40:29.662Z,99.90
2018-08-19T01:42:58.171Z,99.90
2018-08-19T01:45:26.653Z,99.90
2018-08-19T01:47:55.184Z,99.90
2018-08-19T01:50:23.712Z,99.90
2018-08-19T01:52:52.226Z,99.90
2018-08-19T01:55:20.762Z,99.90
2018-08-19T01:57:50.366Z,99.90
2018-08-19T02:00:19.470Z,99.90
2018-08-19T02:02:57.290Z,99.90
2018-08-19T02:05:26.248Z,99.90
2018-08-19T02:07:57.303Z,99.90
2018-08-19T02:10:26.501Z,99.90
2018-08-19T02:12:56.249Z,99.90
2018-08-19T02:15:26.113Z,99.90
2018-08-19T02:17:57.525Z,99.90
2018-08-19T02:20:29.972Z,99.90
2018-08-19T02:22:59.339Z,99.90
2018-08-19T02:25:47.312Z,99.90
2018-08-19T02:28:20.610Z,99.90
2018-08-19T02:30:54.397Z,99.90
2018-08-19T02:33:23.825Z,99.90
2018-08-19T02:36:00.548Z,99.90
2018-08-19T02:38:29.096Z,99.90
2018-08-19T02:40:57.652Z,99.90
2018-08-19T02:43:26.130Z,99.90
2018-08-19T02:45:54.717Z,99.90
2018-08-19T02:48:47.692Z,99.90
2018-08-19T02:51:17.424Z,99.90
2018-08-19T02:53:47.233Z,99.90
2018-08-19T02:56:16.530Z,99.90
2018-08-19T02:58:46.208Z,99.90
2018-08-19T03:01:16.087Z,99.90
2018-08-19T03:03:44.599Z,99.90
2018-08-19T03:06:13.191Z,99.90
2018-08-19T03:08:47.455Z,99.90
2018-08-19T03:11:18.488Z,99.90
2018-08-19T03:13:47.309Z,99.90
2018-08-19T03:16:15.818Z,99.90
2018-08-19T03:18:44.325Z,99.90
2018-08-19T03:21:13.294Z,99.90
2018-08-19T03:23:41.786Z,99.90
2018-08-19T03:26:10.286Z,99.90
2018-08-19T03:28:38.812Z,99.90
2018-08-19T03:31:08.988Z,99.90
2018-08-19T03:33:37.472Z,99.90
2018-08-19T03:36:06.223Z,99.90
2018-08-19T03:38:34.733Z,99.90
2018-08-19T03:41:03.279Z,99.90
2018-08-19T03:43:31.818Z,99.90
2018-08-19T03:46:05.477Z,99.90
2018-08-19T03:48:34.412Z,99.90
2018-08-19T03:51:03.255Z,99.90
2018-08-19T03:53:31.757Z,99.90
2018-08-19T03:56:00.226Z,99.90
2018-08-19T03:58:28.711Z,99.90
2018-08-19T04:00:57.231Z,99.90
2018-08-19T04:03:26.552Z,99.90
2018-08-19T04:05:57.233Z,99.90
2018-08-19T04:08:40.013Z,99.90
2018-08-19T04:11:08.899Z,99.90
2018-08-19T04:13:40.453Z,99.90
2018-08-19T04:16:10.232Z,99.90
2018-08-19T04:18:40.985Z,99.90
2018-08-19T04:21:10.774Z,99.90
2018-08-19T04:23:41.855Z,99.90
2018-08-19T04:26:10.387Z,99.90
2018-08-19T04:28:41.005Z,99.90
2018-08-19T04:31:25.135Z,99.90
2018-08-19T04:33:54.520Z,99.90
2018-08-19T04:36:24.364Z,99.90
2018-08-19T04:38:52.907Z,99.90
2018-08-19T04:41:21.413Z,99.90
2018-08-19T04:43:50.092Z,99.90
2018-08-19T04:46:18.618Z,99.90
2018-08-19T04:48:47.879Z,99.90
2018-08-19T04:51:16.452Z,99.90
2018-08-19T04:53:44.948Z,99.90
2018-08-19T04:56:13.486Z,99.90
2018-08-19T04:58:42.011Z,99.90
2018-08-19T05:01:11.359Z,99.90
2018-08-19T05:03:39.999Z,99.90
2018-08-19T05:06:08.536Z,99.90
2018-08-19T05:08:37.015Z,99.90
2018-08-19T05:11:05.508Z,99.90
2018-08-19T05:13:34.010Z,99.90
2018-08-19T05:16:02.599Z,99.90
2018-08-19T05:18:31.147Z,99.90
2018-08-19T05:21:04.982Z,99.90
2018-08-19T05:23:33.483Z,99.90
2018-08-19T05:26:01.985Z,99.90
2018-08-19T05:28:30.524Z,99.90
2018-08-19T05:30:59.019Z,99.90
2018-08-19T05:33:27.511Z,99.90
2018-08-19T05:35:56.063Z,99.90
2018-08-19T05:38:24.695Z,99.90
2018-08-19T05:41:00.219Z,99.90
2018-08-19T05:43:29.479Z,99.90
2018-08-19T05:45:59.300Z,99.90
2018-08-19T05:48:27.902Z,99.90
2018-08-19T05:50:56.883Z,99.90
2018-08-19T05:53:25.448Z,99.90
2018-08-19T05:55:54.055Z,99.90
2018-08-19T05:58:22.617Z,99.90
2018-08-19T06:00:54.611Z,99.90
2018-08-19T06:03:23.114Z,99.90
2018-08-19T06:05:51.631Z,99.90
2018-08-19T06:08:20.216Z,99.90
2018-08-19T06:10:48.734Z,99.90
2018-08-19T06:13:17.273Z,99.90
2018-08-19T06:15:45.873Z,99.90
2018-08-19T06:18:14.464Z,99.90
2018-08-19T06:20:42.972Z,99.90
2018-08-19T06:23:11.490Z,99.90
2018-08-19T06:25:40.018Z,99.90
2018-08-19T06:28:08.574Z,99.90
2018-08-19T06:30:37.172Z,99.90
2018-08-19T06:33:05.780Z,99.90
2018-08-19T06:35:34.308Z,99.90
2018-08-19T06:38:02.832Z,99.90
2018-08-19T06:40:31.322Z,99.90
2018-08-19T06:42:59.861Z,99.90
2018-08-19T06:45:28.372Z,99.90
2018-08-19T06:47:56.962Z,99.90
2018-08-19T06:50:31.381Z,99.90
2018-08-19T06:52:59.930Z,99.90
2018-08-19T06:55:28.556Z,99.90
2018-08-19T06:57:58.100Z,99.90
2018-08-19T07:00:30.879Z,99.90
2018-08-19T07:03:02.717Z,99.90
2018-08-19T07:05:31.849Z,99.90
2018-08-19T07:08:00.455Z,99.90
2018-08-19T07:10:35.424Z,99.90
2018-08-19T07:13:09.354Z,99.90
2018-08-19T07:15:39.975Z,99.90
2018-08-19T07:18:10.506Z,99.90
2018-08-19T07:20:39.955Z,99.90
2018-08-19T07:23:09.017Z,99.90
2018-08-19T07:25:39.569Z,99.90
2018-08-19T07:28:09.572Z,99.90
2018-08-19T07:30:38.256Z,99.90
2018-08-19T07:33:06.943Z,99.90
2018-08-19T07:35:35.478Z,99.90
2018-08-19T07:38:04.291Z,99.90
2018-08-19T07:40:33.010Z,99.90
2018-08-19T07:43:01.656Z,99.90
2018-08-19T07:45:30.246Z,99.90
2018-08-19T07:47:58.926Z,99.90
2018-08-19T07:50:27.488Z,99.90
2018-08-19T07:52:56.046Z,99.90
2018-08-19T07:55:24.751Z,99.90
2018-08-19T07:57:53.301Z,99.30
2018-08-19T08:00:27.198Z,99.90
2018-08-19T08:02:55.816Z,97.70
2018-08-19T08:05:26.574Z,99.10
2018-08-19T08:07:55.229Z,99.90
2018-08-19T08:10:23.812Z,98.80
2018-08-19T08:13:22.866Z,99.60
2018-08-19T08:15:54.126Z,99.30
2018-08-19T08:18:22.743Z,98.20
2018-08-19T08:20:53.882Z,99.90
2018-08-19T08:23:24.251Z,99.90
2018-08-19T08:25:52.775Z,97.10
2018-08-19T08:28:21.544Z,97.60
2018-08-19T08:30:50.052Z,97.60
2018-08-19T08:33:18.586Z,96.50
2018-08-19T08:36:02.626Z,98.00
2018-08-19T08:38:31.230Z,95.30
2018-08-19T08:40:59.795Z,95.10
2018-08-19T08:43:28.369Z,95.00
2018-08-19T08:45:57.517Z,95.60
2018-08-19T08:48:26.336Z,95.30
2018-08-19T08:50:54.917Z,93.20
2018-08-19T08:53:26.746Z,92.80
2018-08-19T08:55:55.327Z,93.70
2018-08-19T08:58:23.879Z,93.60
2018-08-19T09:00:52.440Z,94.90
2018-08-19T09:03:21.085Z,92.20
2018-08-19T09:05:49.616Z,92.10
2018-08-19T09:08:18.215Z,91.70
2018-08-19T09:10:48.136Z,88.60
2018-08-19T09:13:16.735Z,88.60
2018-08-19T09:15:45.243Z,89.60
2018-08-19T09:18:13.820Z,88.10
2018-08-19T09:20:42.392Z,89.40
2018-08-19T09:23:11.167Z,90.10
2018-08-19T09:25:39.569Z,88.60
2018-08-19T09:28:08.186Z,89.70
2018-08-19T09:30:39.316Z,90.30
2018-08-19T09:33:08.188Z,89.70
2018-08-19T09:35:37.997Z,90.50
2018-08-19T09:38:18.120Z,91.30
2018-08-19T09:40:46.935Z,88.70
2018-08-19T09:43:15.603Z,88.40
2018-08-19T09:45:44.625Z,87.80
2018-08-19T09:48:13.623Z,87.40
2018-08-19T09:50:42.776Z,87.90
2018-08-19T09:53:11.384Z,87.80
2018-08-19T09:55:45.317Z,87.50
2018-08-19T09:58:20.781Z,87.40
2018-08-19T10:00:54.631Z,88.10
2018-08-19T10:03:23.280Z,90.10
2018-08-19T10:05:51.879Z,89.30
2018-08-19T10:08:22.831Z,88.70
2018-08-19T10:10:51.669Z,87.80
2018-08-19T10:13:20.272Z,86.60
2018-08-19T10:15:48.810Z,86.20
2018-08-19T10:18:17.335Z,86.20
2018-08-19T10:20:45.915Z,85.70
2018-08-19T10:23:14.433Z,87.20
2018-08-19T10:25:43.099Z,89.20
2018-08-19T10:28:11.643Z,87.40
2018-08-19T10:30:46.099Z,86.80
2018-08-19T10:33:14.672Z,85.70
2018-08-19T10:35:43.199Z,86.50
2018-08-19T10:38:11.813Z,85.90
2018-08-19T10:40:40.386Z,85.90
2018-08-19T10:43:10.269Z,88.80
2018-08-19T10:45:42.655Z,84.60
2018-08-19T10:48:12.987Z,85.20
2018-08-19T10:50:41.538Z,84.50
2018-08-19T10:53:16.336Z,86.10
2018-08-19T10:55:45.943Z,82.00
2018-08-19T10:58:14.536Z,87.30
2018-08-19T11:00:43.151Z,81.30
2018-08-19T11:03:16.990Z,82.80
2018-08-19T11:05:46.693Z,87.80
2018-08-19T11:08:15.258Z,86.20
2018-08-19T11:10:43.849Z,83.90
2018-08-19T11:13:12.462Z,80.20
2018-08-19T11:15:46.747Z,78.40
2018-08-19T11:18:36.683Z,77.50
2018-08-19T11:21:08.396Z,83.20
2018-08-19T11:23:38.218Z,82.30
2018-08-19T11:26:07.393Z,79.20
2018-08-19T11:28:38.230Z,76.40
2018-08-19T11:31:08.019Z,80.90
2018-08-19T11:33:39.868Z,79.30
2018-08-19T11:36:08.970Z,79.20
2018-08-19T11:38:38.201Z,80.30
2018-08-19T11:41:08.184Z,81.90
2018-08-19T11:43:40.041Z,79.20
2018-08-19T11:46:09.090Z,78.90
2018-08-19T11:48:38.376Z,76.20
2018-08-19T11:51:07.111Z,74.90
2018-08-19T11:53:35.819Z,74.40
2018-08-19T11:56:04.563Z,75.40
2018-08-19T11:58:46.642Z,74.50
2018-08-19T12:01:20.945Z,76.60
2018-08-19T12:03:58.192Z,72.60
2018-08-19T12:06:28.867Z,73.60
2018-08-19T12:08:58.653Z,73.60
2018-08-19T12:11:29.727Z,73.20
2018-08-19T12:13:58.347Z,72.70
2018-08-19T12:16:27.889Z,72.80
2018-08-19T12:19:05.118Z,73.00
2018-08-19T12:21:37.814Z,71.40
2018-08-19T12:24:18.457Z,73.30
2018-08-19T12:26:47.008Z,73.30
2018-08-19T12:29:15.554Z,72.30
2018-08-19T12:31:44.144Z,72.00
2018-08-19T12:34:12.674Z,72.40
2018-08-19T12:36:41.216Z,71.30
2018-08-19T12:39:10.345Z,69.40
2018-08-19T12:41:41.989Z,67.20
2018-08-19T12:44:10.578Z,68.00
2018-08-19T12:46:39.178Z,65.90
2018-08-19T12:49:07.719Z,65.10
2018-08-19T12:51:36.252Z,64.40
2018-08-19T12:54:04.885Z,64.40
2018-08-19T12:56:33.420Z,63.90
2018-08-19T12:59:01.969Z,64.00
2018-08-19T13:01:30.501Z,63.60
2018-08-19T13:03:59.062Z,64.00
2018-08-19T13:06:27.625Z,63.60
2018-08-19T13:08:56.169Z,63.70
2018-08-19T13:11:24.826Z,65.10
2018-08-19T13:13:53.407Z,62.60
2018-08-19T13:16:21.926Z,62.80
2018-08-19T13:18:50.507Z,65.00
2018-08-19T13:21:19.133Z,61.80
2018-08-19T13:23:47.658Z,61.80
2018-08-19T13:26:16.231Z,63.40
2018-08-19T13:28:48.956Z,60.90
2018-08-19T13:31:21.690Z,60.80
2018-08-19T13:33:50.211Z,61.40
2018-08-19T13:36:18.725Z,59.80
2018-08-19T13:38:47.272Z,60.60
2018-08-19T13:41:15.873Z,59.80
2018-08-19T13:43:44.442Z,60.60
2018-08-19T13:46:12.954Z,59.20
2018-08-19T13:48:41.481Z,60.10
2018-08-19T13:51:10.093Z,61.90
2018-08-19T13:53:38.753Z,63.70
2018-08-19T13:56:07.369Z,62.60
2018-08-19T13:58:36.151Z,62.20
2018-08-19T14:01:04.712Z,63.20
2018-08-19T14:03:33.250Z,61.60
2018-08-19T14:06:01.831Z,62.20
2018-08-19T14:08:31.123Z,61.80
2018-08-19T14:10:59.743Z,61.60
2018-08-19T14:13:28.317Z,61.60
2018-08-19T14:15:56.853Z,61.60
2018-08-19T14:18:25.350Z,62.70
2018-08-19T14:20:53.916Z,62.50
2018-08-19T14:23:22.428Z,62.70
2018-08-19T14:25:50.920Z,62.70
2018-08-19T14:28:19.457Z,63.70
2018-08-19T14:30:48.082Z,62.20
2018-08-19T14:33:16.540Z,61.20
2018-08-19T14:35:45.274Z,60.40
2018-08-19T14:38:13.772Z,58.90
2018-08-19T14:40:42.318Z,60.90
2018-08-19T14:43:10.888Z,57.30
2018-08-19T14:45:39.416Z,57.70
2018-08-19T14:48:08.067Z,55.80
2018-08-19T14:50:36.676Z,57.80
2018-08-19T14:53:05.262Z,55.90
2018-08-19T14:55:33.801Z,55.40
2018-08-19T14:58:02.341Z,57.90
2018-08-19T15:00:30.925Z,57.00
2018-08-19T15:02:59.483Z,57.60
2018-08-19T15:05:28.040Z,58.10
2018-08-19T15:08:00.443Z,59.80
2018-08-19T15:10:29.043Z,59.50
2018-08-19T15:12:57.585Z,58.80
2018-08-19T15:15:26.097Z,60.70
2018-08-19T15:17:59.794Z,61.80
2018-08-19T15:20:34.609Z,62.40
2018-08-19T15:23:14.724Z,62.90
2018-08-19T15:25:43.369Z,64.30
2018-08-19T15:28:11.872Z,63.10
2018-08-19T15:30:41.081Z,65.50
2018-08-19T15:33:10.888Z,64.40
2018-08-19T15:35:39.401Z,64.30
2018-08-19T15:38:08.105Z,64.80
2018-08-19T15:40:39.277Z,64.40
2018-08-19T15:43:08.478Z,64.30
2018-08-19T15:45:36.998Z,64.60
2018-08-19T15:48:06.180Z,64.10
2018-08-19T15:50:34.766Z,64.70
2018-08-19T15:53:05.104Z,65.50
2018-08-19T15:55:33.670Z,65.40
2018-08-19T15:58:03.476Z,66.20
2018-08-19T16:00:34.692Z,65.80
2018-08-19T16:03:03.336Z,66.20
2018-08-19T16:05:31.878Z,67.20
2018-08-19T16:08:00.518Z,66.20
2018-08-19T16:10:29.102Z,67.80
2018-08-19T16:12:57.690Z,66.90
2018-08-19T16:15:27.436Z,65.30
2018-08-19T16:17:57.227Z,66.20
2018-08-19T16:20:25.900Z,66.30
2018-08-19T16:22:54.419Z,68.10
2018-08-19T16:25:23.000Z,68.50
2018-08-19T16:27:52.019Z,68.90
2018-08-19T16:30:20.944Z,70.30
2018-08-19T16:32:49.471Z,69.30
2018-08-19T16:35:18.029Z,68.70
2018-08-19T16:37:46.589Z,68.70
2018-08-19T16:40:15.174Z,71.00
2018-08-19T16:42:43.708Z,71.60
2018-08-19T16:45:12.840Z,73.60
2018-08-19T16:47:41.372Z,74.00
2018-08-19T16:50:12.012Z,73.50
2018-08-19T16:52:40.571Z,72.20
2018-08-19T16:55:09.697Z,71.50
2018-08-19T16:57:38.288Z,74.70
2018-08-19T17:00:08.607Z,76.80
2018-08-19T17:02:37.282Z,77.10
2018-08-19T17:05:15.605Z,75.90
2018-08-19T17:07:44.163Z,73.70
2018-08-19T17:10:12.802Z,74.70
2018-08-19T17:12:41.221Z,76.70
2018-08-19T17:15:09.816Z,76.50
2018-08-19T17:17:38.339Z,77.20
2018-08-19T17:20:06.877Z,74.60
2018-08-19T17:22:35.730Z,74.40
2018-08-19T17:25:05.044Z,74.00
2018-08-19T17:27:34.336Z,77.10
2018-08-19T17:30:05.058Z,76.90
2018-08-19T17:32:33.740Z,75.70
2018-08-19T17:35:02.242Z,76.60
2018-08-19T17:37:30.789Z,75.70
2018-08-19T17:40:00.078Z,76.10
2018-08-19T17:42:28.628Z,77.00
2018-08-19T17:44:57.170Z,76.50
2018-08-19T17:47:25.728Z,76.50
2018-08-19T17:49:54.253Z,77.40
2018-08-19T17:52:22.854Z,75.70
2018-08-19T17:54:51.379Z,77.00
2018-08-19T17:57:19.979Z,76.50
2018-08-19T17:59:48.554Z,76.70
2018-08-19T18:02:17.018Z,73.60
2018-08-19T18:04:46.950Z,73.80
2018-08-19T18:07:19.567Z,75.60
2018-08-19T18:09:52.328Z,76.20
2018-08-19T18:12:22.010Z,76.00
2018-08-19T18:14:50.597Z,76.50
2018-08-19T18:17:19.103Z,77.70
2018-08-19T18:19:47.647Z,78.80
2018-08-19T18:22:18.680Z,81.90
2018-08-19T18:24:51.453Z,80.60
2018-08-19T18:27:20.269Z,82.10
2018-08-19T18:29:49.491Z,82.50
2018-08-19T18:32:18.027Z,82.20
2018-08-19T18:34:46.523Z,79.30
2018-08-19T18:37:15.052Z,77.90
2018-08-19T18:39:44.131Z,76.70
2018-08-19T18:42:19.814Z,74.60
2018-08-19T18:44:48.726Z,74.60
2018-08-19T18:47:17.269Z,75.50
2018-08-19T18:49:45.816Z,75.80
2018-08-19T18:52:18.200Z,76.40
2018-08-19T18:54:46.796Z,76.80
2018-08-19T18:57:15.360Z,77.80
2018-08-19T18:59:44.293Z,79.70
2018-08-19T19:02:12.920Z,80.40
2018-08-19T19:04:41.559Z,82.60
2018-08-19T19:07:10.131Z,83.80
2018-08-19T19:09:44.064Z,85.00
2018-08-19T19:12:12.915Z,85.80
2018-08-19T19:14:41.499Z,86.20
2018-08-19T19:17:10.072Z,86.70
2018-08-19T19:19:43.713Z,86.50
2018-08-19T19:22:12.428Z,88.40
2018-08-19T19:24:41.470Z,88.30
2018-08-19T19:27:10.978Z,88.70
2018-08-19T19:29:39.932Z,89.70
2018-08-19T19:32:20.975Z,90.20
2018-08-19T19:34:49.461Z,89.30
2018-08-19T19:37:18.064Z,88.90
2018-08-19T19:39:50.002Z,89.40
2018-08-19T19:42:18.770Z,89.90
2018-08-19T19:44:47.533Z,90.10
2018-08-19T19:47:16.148Z,90.40
2018-08-19T19:49:48.962Z,90.80
2018-08-19T19:52:17.475Z,91.00
2018-08-19T19:54:46.101Z,90.70
2018-08-19T19:57:15.021Z,90.80
2018-08-19T19:59:43.546Z,91.20
2018-08-19T20:02:17.064Z,91.20
2018-08-19T20:04:45.739Z,91.40
2018-08-19T20:07:14.316Z,91.50
2018-08-19T20:09:42.939Z,91.60
2018-08-19T20:12:31.885Z,92.00
2018-08-19T20:15:01.644Z,92.40
2018-08-19T20:17:30.182Z,92.60
2018-08-19T20:19:58.711Z,92.80
2018-08-19T20:22:27.264Z,93.20
2018-08-19T20:24:55.801Z,93.40
2018-08-19T20:27:24.380Z,93.30
2018-08-19T20:29:54.150Z,93.30
2018-08-19T20:32:23.030Z,93.60
2018-08-19T20:34:51.808Z,93.60
2018-08-19T20:37:22.789Z,93.60
2018-08-19T20:39:51.716Z,94.30
2018-08-19T20:42:20.539Z,94.80
2018-08-19T20:44:49.138Z,95.20
2018-08-19T20:47:17.679Z,95.20
2018-08-19T20:49:48.170Z,95.80
2018-08-19T20:52:16.815Z,95.70
2018-08-19T20:54:45.468Z,95.40
2018-08-19T20:57:13.984Z,95.20
2018-08-19T20:59:42.500Z,95.00
2018-08-19T21:02:11.090Z,95.10
2018-08-19T21:04:39.624Z,94.90
2018-08-19T21:07:08.176Z,94.90
2018-08-19T21:09:36.793Z,95.00
2018-08-19T21:12:05.390Z,95.20
2018-08-19T21:14:33.980Z,95.60
2018-08-19T21:17:04.118Z,95.70
2018-08-19T21:19:32.996Z,96.40
2018-08-19T21:22:01.538Z,96.50
2018-08-19T21:24:30.116Z,96.50
2018-08-19T21:27:01.523Z,96.70
2018-08-19T21:29:30.593Z,96.80
2018-08-19T21:31:59.149Z,96.80
2018-08-19T21:34:28.211Z,96.70
2018-08-19T21:36:57.151Z,96.80
2018-08-19T21:39:25.745Z,96.60
2018-08-19T21:41:55.271Z,96.80
2018-08-19T21:44:23.866Z,96.20
2018-08-19T21:46:52.387Z,96.20
2018-08-19T21:49:20.929Z,96.50
2018-08-19T21:51:49.504Z,96.50
2018-08-19T21:54:18.211Z,96.50
2018-08-19T21:56:46.768Z,96.30
2018-08-19T21:59:29.729Z,96.30
2018-08-19T22:02:00.145Z,96.20
2018-08-19T22:04:29.463Z,96.70
2018-08-19T22:06:58.006Z,96.80
2018-08-19T22:09:35.633Z,97.40
2018-08-19T22:12:04.877Z,97.70
2018-08-19T22:14:33.819Z,98.30
2018-08-19T22:17:09.717Z,98.70
2018-08-19T22:19:38.809Z,98.40
2018-08-19T22:22:07.827Z,98.60
2018-08-19T22:24:36.411Z,99.10
2018-08-19T22:27:23.367Z,98.90
2018-08-19T22:29:51.907Z,98.70
2018-08-19T22:32:20.480Z,99.10
2018-08-19T22:34:49.030Z,99.60
2018-08-19T22:37:17.632Z,99.70
2018-08-19T22:39:47.300Z,99.60
2018-08-19T22:42:15.843Z,99.90
2018-08-19T22:44:44.384Z,99.60
2018-08-19T22:47:12.911Z,99.20
2018-08-19T22:49:41.503Z,98.70
2018-08-19T22:52:22.245Z,98.30
2018-08-19T22:54:52.465Z,98.20
2018-08-19T22:57:21.025Z,98.30
2018-08-19T22:59:49.732Z,98.00
2018-08-19T23:02:18.356Z,98.30
2018-08-19T23:04:47.392Z,98.50
2018-08-19T23:07:15.997Z,99.00
2018-08-19T23:09:44.579Z,99.40
2018-08-19T23:12:13.171Z,99.60
2018-08-19T23:14:52.832Z,99.80
2018-08-19T23:17:21.388Z,99.80
2018-08-19T23:19:50.939Z,99.80
2018-08-19T23:22:19.472Z,99.90
2018-08-19T23:24:48.238Z,99.90
2018-08-19T23:27:16.762Z,99.90
2018-08-19T23:29:45.272Z,99.90
2018-08-19T23:32:13.833Z,99.90
2018-08-19T23:34:42.355Z,99.90
2018-08-19T23:37:10.903Z,99.90
2018-08-19T23:39:39.511Z,99.90
2018-08-19T23:42:08.075Z,99.90
2018-08-19T23:44:36.637Z,99.90
2018-08-19T23:47:05.327Z,99.90
2018-08-19T23:49:33.891Z,99.90
2018-08-19T23:52:02.439Z,99.90
2018-08-19T23:54:31.021Z,99.90
2018-08-19T23:56:59.543Z,99.90
2018-08-19T23:59:34.724Z,99.90
